Upstream stations:
Downstream station:
SHEF ID: CHNK1 Cheney Lake
STATION TYPE: RESERVOIR
Flood Pool: Bottom = 1421.60, Top = 1429.00
PRECIP ELEVATION STORAGE INFLOW RELEASE WIND-DIRWIND-SPEED VOLTAGE
in ft ac-ft cfs cfs deg mph volt
Ccp-Rev Ccp-Rev Ccp-Rev Rev-Regi Rev-Regi Ccp-Rev Ccp-Rev Ccp-Rev
(US/Central)
09/02 00:00 0.00 1420.23 154326 0 0 134.70 12.30 13.09
09/02 01:00 0.00 1420.23 154326 0 0 134.80 12.40 13.11
09/02 02:00 0.00 1420.23 154326 0 0 134.70 11.30 13.11
09/02 03:00 0.00 1420.23 154326 0 0 138.00 11.60 13.12
09/02 04:00 0.00 1420.23 154326 0 0 138.60 9.90 13.13
09/02 05:00 0.00 1420.23 154326 0 0 133.70 8.10 13.12
09/02 06:00 0.00 1420.24 154418 0 0 132.50 10.50 13.13
09/02 07:00 0.00 1420.24 154418 0 0 137.60 10.30 13.13
09/02 08:00 0.00 1420.23 154326 0 0 140.00 8.80 13.13
09/02 09:00 0.00 1420.23 154326 0 0 ---- ---- 13.13
09/02 10:00 0.00 1420.22 154235 0 0 ---- ---- 13.13
09/02 11:00 0.00 1420.23 154326 0 0 ---- ---- 13.13
09/02 12:00 0.00 1420.23 154326 0 0 ---- ---- 13.13
09/02 13:00 0.00 1420.22 154235 0 0 ---- ---- 13.11
09/02 14:00 0.00 1420.21 154143 0 0 ---- ---- 13.13
09/02 15:00 0.00 1420.22 154235 767 0 ---- ---- 13.11
09/02 16:00 0.00 1420.21 154143 767 0 ---- ---- 13.11
09/02 17:00 0.00 1420.26 154601 767 0 ---- ---- 13.11
09/02 18:00 0.03 1420.24 154418 767 0 ---- ---- 13.11
09/02 19:00 0.00 1420.22 154235 1535 0 ---- ---- 13.09
09/02 20:00 0.00 1420.24 154418 938 0 ---- ---- 13.11
09/02 21:00 0.03 1420.29 154876 1449 0 ---- ---- 13.11
09/02 22:00 0.04 1420.30 154967 1619 0 ---- ---- 13.11
09/02 23:00 0.09 1420.33 155242 2470 0 ---- ---- 13.11